createdAt,value
2023-05-02T00:06:21.552Z,12.53
2023-05-02T00:21:12.229Z,12.37
2023-05-02T02:23:38.412Z,12.07
2023-05-02T02:38:30.107Z,11.57
2023-05-02T02:53:21.013Z,11.58
2023-05-02T03:08:14.028Z,11.59
2023-05-02T03:23:06.164Z,11.54
2023-05-02T03:37:58.359Z,11.53
2023-05-02T04:07:54.095Z,11.30
2023-05-02T04:22:45.761Z,11.28
2023-05-02T04:37:36.699Z,11.21
2023-05-02T04:52:28.148Z,11.23
2023-05-02T05:07:22.243Z,11.37
2023-05-02T05:22:17.226Z,11.62
2023-05-02T05:37:08.542Z,11.88
2023-05-02T05:52:01.076Z,12.11
2023-05-02T06:06:53.813Z,12.41
2023-05-02T06:21:45.721Z,12.79
2023-05-02T06:36:37.433Z,13.01
2023-05-02T06:51:30.429Z,13.28
2023-05-02T07:06:22.526Z,13.49
2023-05-02T07:21:16.286Z,13.89
2023-05-02T07:36:09.242Z,14.47
2023-05-02T07:51:07.290Z,14.64
2023-05-02T08:06:01.917Z,14.54
2023-05-02T08:20:53.608Z,14.64
2023-05-02T08:35:46.337Z,14.95
2023-05-02T08:50:39.939Z,15.26
2023-05-02T09:05:33.122Z,15.76
2023-05-02T09:20:28.268Z,15.72
2023-05-02T09:35:20.577Z,16.00
2023-05-02T09:50:12.910Z,16.23
2023-05-02T10:05:06.457Z,16.39
2023-05-02T10:20:04.966Z,16.57
2023-05-02T10:49:52.461Z,16.83
2023-05-02T11:35:00.715Z,17.23
2023-05-02T11:49:52.118Z,17.61
2023-05-02T12:04:50.060Z,17.66
2023-05-02T12:19:42.141Z,18.34
2023-05-02T12:49:27.140Z,19.02
2023-05-02T13:04:17.721Z,18.70
2023-05-02T13:19:09.746Z,18.53
2023-05-02T13:34:00.829Z,18.34
2023-05-02T13:48:54.206Z,18.62
2023-05-02T14:03:48.633Z,19.76
2023-05-02T14:18:45.785Z,20.44
2023-05-02T14:33:43.897Z,20.89
2023-05-02T14:48:41.101Z,21.35
2023-05-02T15:03:56.640Z,22.57
2023-05-02T15:18:31.102Z,22.56
2023-05-02T15:33:21.190Z,22.99
2023-05-02T15:48:18.624Z,23.19
2023-05-02T16:03:10.777Z,22.32
2023-05-02T16:17:56.336Z,20.80
2023-05-02T16:32:42.790Z,20.03
2023-05-02T16:47:33.419Z,19.66
2023-05-02T17:02:25.401Z,19.29
2023-05-02T17:17:17.631Z,18.95
2023-05-02T17:32:09.972Z,18.81
2023-05-02T17:47:01.706Z,18.54
2023-05-02T18:01:52.671Z,18.16
2023-05-02T18:16:45.186Z,17.96
2023-05-02T18:31:37.776Z,17.74
2023-05-02T18:46:32.919Z,17.43
2023-05-02T19:01:22.994Z,17.15
2023-05-02T19:16:14.719Z,16.72
2023-05-02T19:31:12.815Z,16.39
2023-05-02T19:46:09.597Z,16.13
2023-05-02T20:01:00.932Z,15.92
2023-05-02T20:15:51.566Z,15.58
2023-05-02T20:30:42.849Z,15.26
2023-05-02T20:45:33.973Z,15.03
2023-05-02T21:00:26.297Z,14.75
2023-05-02T21:15:17.178Z,14.50
2023-05-02T21:45:02.678Z,13.96
2023-05-02T22:14:46.885Z,13.65
2023-05-02T22:59:23.078Z,12.71
2023-05-02T23:14:14.345Z,12.60
2023-05-02T23:29:05.313Z,12.39
2023-05-02T23:43:56.138Z,12.21
2023-05-02T23:58:47.057Z,11.99
